sensor_id;sensor_type;location;lat;lon;timestamp;P1;durP1;ratioP1;P2;durP2;ratioP2
84046;SDS011;74133;0.000;0.000;2023-11-22T00:00:06;1.58;;;1.00;;
84046;SDS011;74133;0.000;0.000;2023-11-22T00:04:58;1.30;;;1.00;;
84046;SDS011;74133;0.000;0.000;2023-11-22T00:07:23;2.10;;;1.13;;
84046;SDS011;74133;0.000;0.000;2023-11-22T00:09:49;2.23;;;1.20;;
84046;SDS011;74133;0.000;0.000;2023-11-22T00:12:14;1.77;;;1.27;;
84046;SDS011;74133;0.000;0.000;2023-11-22T00:14:42;1.30;;;1.00;;
84046;SDS011;74133;0.000;0.000;2023-11-22T00:17:08;1.23;;;0.95;;
84046;SDS011;74133;0.000;0.000;2023-11-22T00:19:33;3.20;;;1.30;;
84046;SDS011;74133;0.000;0.000;2023-11-22T00:21:59;1.40;;;1.10;;
84046;SDS011;74133;0.000;0.000;2023-11-22T00:24:24;1.33;;;1.10;;
84046;SDS011;74133;0.000;0.000;2023-11-22T00:26:49;1.80;;;1.47;;
84046;SDS011;74133;0.000;0.000;2023-11-22T00:29:14;1.73;;;1.23;;
84046;SDS011;74133;0.000;0.000;2023-11-22T00:31:40;1.63;;;1.10;;
84046;SDS011;74133;0.000;0.000;2023-11-22T00:34:05;1.38;;;1.00;;
84046;SDS011;74133;0.000;0.000;2023-11-22T00:36:31;1.80;;;1.40;;
84046;SDS011;74133;0.000;0.000;2023-11-22T00:38:56;1.40;;;1.02;;
84046;SDS011;74133;0.000;0.000;2023-11-22T00:41:22;1.13;;;0.90;;
84046;SDS011;74133;0.000;0.000;2023-11-22T00:43:47;1.30;;;1.07;;
84046;SDS011;74133;0.000;0.000;2023-11-22T00:46:12;2.93;;;1.43;;
84046;SDS011;74133;0.000;0.000;2023-11-22T00:48:38;4.15;;;1.30;;
84046;SDS011;74133;0.000;0.000;2023-11-22T00:51:03;2.38;;;1.10;;
84046;SDS011;74133;0.000;0.000;2023-11-22T00:53:33;1.48;;;1.27;;
84046;SDS011;74133;0.000;0.000;2023-11-22T00:56:01;1.75;;;1.15;;
84046;SDS011;74133;0.000;0.000;2023-11-22T00:58:26;1.38;;;1.20;;
84046;SDS011;74133;0.000;0.000;2023-11-22T01:00:52;1.33;;;1.10;;
84046;SDS011;74133;0.000;0.000;2023-11-22T01:03:18;1.40;;;1.10;;
84046;SDS011;74133;0.000;0.000;2023-11-22T01:05:44;1.45;;;1.13;;
84046;SDS011;74133;0.000;0.000;2023-11-22T01:08:09;1.77;;;1.00;;
84046;SDS011;74133;0.000;0.000;2023-11-22T01:10:35;2.28;;;1.10;;
84046;SDS011;74133;0.000;0.000;2023-11-22T01:13:00;1.10;;;1.00;;
84046;SDS011;74133;0.000;0.000;2023-11-22T01:15:25;1.53;;;1.00;;
84046;SDS011;74133;0.000;0.000;2023-11-22T01:17:51;1.90;;;1.30;;
84046;SDS011;74133;0.000;0.000;2023-11-22T01:20:16;2.37;;;1.30;;
84046;SDS011;74133;0.000;0.000;2023-11-22T01:22:42;2.33;;;1.20;;
84046;SDS011;74133;0.000;0.000;2023-11-22T01:25:07;1.73;;;1.23;;
84046;SDS011;74133;0.000;0.000;2023-11-22T01:27:33;1.17;;;0.98;;
84046;SDS011;74133;0.000;0.000;2023-11-22T01:29:58;1.60;;;0.90;;
84046;SDS011;74133;0.000;0.000;2023-11-22T01:32:23;2.03;;;1.13;;
84046;SDS011;74133;0.000;0.000;2023-11-22T01:34:49;2.42;;;1.40;;
84046;SDS011;74133;0.000;0.000;2023-11-22T01:37:14;1.57;;;1.30;;
84046;SDS011;74133;0.000;0.000;2023-11-22T01:39:39;1.80;;;1.10;;
84046;SDS011;74133;0.000;0.000;2023-11-22T01:42:06;2.03;;;1.10;;
84046;SDS011;74133;0.000;0.000;2023-11-22T01:44:32;1.27;;;0.93;;
84046;SDS011;74133;0.000;0.000;2023-11-22T01:46:57;2.13;;;1.30;;
84046;SDS011;74133;0.000;0.000;2023-11-22T01:49:23;1.75;;;1.10;;
84046;SDS011;74133;0.000;0.000;2023-11-22T01:51:48;1.52;;;0.95;;
84046;SDS011;74133;0.000;0.000;2023-11-22T01:54:14;1.85;;;1.10;;
84046;SDS011;74133;0.000;0.000;2023-11-22T01:56:42;2.10;;;1.00;;
84046;SDS011;74133;0.000;0.000;2023-11-22T01:59:07;1.92;;;1.00;;
84046;SDS011;74133;0.000;0.000;2023-11-22T02:01:33;1.70;;;1.20;;
84046;SDS011;74133;0.000;0.000;2023-11-22T02:03:58;1.80;;;1.13;;
84046;SDS011;74133;0.000;0.000;2023-11-22T02:06:23;1.27;;;1.00;;
84046;SDS011;74133;0.000;0.000;2023-11-22T02:08:49;1.40;;;1.20;;
84046;SDS011;74133;0.000;0.000;2023-11-22T02:11:18;1.47;;;1.03;;
84046;SDS011;74133;0.000;0.000;2023-11-22T02:13:47;1.65;;;1.10;;
84046;SDS011;74133;0.000;0.000;2023-11-22T02:16:14;1.70;;;1.20;;
84046;SDS011;74133;0.000;0.000;2023-11-22T02:18:40;2.25;;;1.25;;
84046;SDS011;74133;0.000;0.000;2023-11-22T02:21:07;1.40;;;0.98;;
84046;SDS011;74133;0.000;0.000;2023-11-22T02:23:32;1.70;;;1.20;;
84046;SDS011;74133;0.000;0.000;2023-11-22T02:25:57;1.53;;;1.20;;
84046;SDS011;74133;0.000;0.000;2023-11-22T02:28:23;1.95;;;1.02;;
84046;SDS011;74133;0.000;0.000;2023-11-22T02:30:49;1.33;;;0.98;;
84046;SDS011;74133;0.000;0.000;2023-11-22T02:33:14;1.23;;;1.10;;
84046;SDS011;74133;0.000;0.000;2023-11-22T02:35:39;1.30;;;1.20;;
84046;SDS011;74133;0.000;0.000;2023-11-22T02:38:06;1.40;;;1.27;;
84046;SDS011;74133;0.000;0.000;2023-11-22T02:40:31;1.10;;;0.87;;
84046;SDS011;74133;0.000;0.000;2023-11-22T02:42:56;1.13;;;1.00;;
84046;SDS011;74133;0.000;0.000;2023-11-22T02:45:25;1.33;;;1.10;;
84046;SDS011;74133;0.000;0.000;2023-11-22T02:47:51;1.88;;;1.30;;
84046;SDS011;74133;0.000;0.000;2023-11-22T02:50:17;1.50;;;0.88;;
84046;SDS011;74133;0.000;0.000;2023-11-22T02:52:43;1.13;;;0.88;;
84046;SDS011;74133;0.000;0.000;2023-11-22T02:55:08;1.50;;;1.07;;
84046;SDS011;74133;0.000;0.000;2023-11-22T02:57:34;0.80;;;0.68;;
84046;SDS011;74133;0.000;0.000;2023-11-22T03:00:01;1.50;;;1.00;;
84046;SDS011;74133;0.000;0.000;2023-11-22T03:02:29;2.58;;;1.38;;
84046;SDS011;74133;0.000;0.000;2023-11-22T03:04:54;1.13;;;0.90;;
84046;SDS011;74133;0.000;0.000;2023-11-22T03:07:19;1.20;;;1.00;;
84046;SDS011;74133;0.000;0.000;2023-11-22T03:09:45;0.88;;;0.77;;
84046;SDS011;74133;0.000;0.000;2023-11-22T03:12:11;1.17;;;0.80;;
84046;SDS011;74133;0.000;0.000;2023-11-22T03:14:37;1.15;;;0.90;;
84046;SDS011;74133;0.000;0.000;2023-11-22T03:17:04;0.93;;;0.73;;
84046;SDS011;74133;0.000;0.000;2023-11-22T03:19:29;1.27;;;0.85;;
84046;SDS011;74133;0.000;0.000;2023-11-22T03:21:54;1.73;;;1.07;;
84046;SDS011;74133;0.000;0.000;2023-11-22T03:24:21;1.30;;;1.00;;
84046;SDS011;74133;0.000;0.000;2023-11-22T03:26:46;2.40;;;0.98;;
84046;SDS011;74133;0.000;0.000;2023-11-22T03:29:12;1.27;;;0.80;;
84046;SDS011;74133;0.000;0.000;2023-11-22T03:31:41;1.20;;;1.00;;
84046;SDS011;74133;0.000;0.000;2023-11-22T03:34:07;1.33;;;1.00;;
84046;SDS011;74133;0.000;0.000;2023-11-22T03:36:32;1.05;;;0.93;;
84046;SDS011;74133;0.000;0.000;2023-11-22T03:38:58;1.23;;;1.10;;
84046;SDS011;74133;0.000;0.000;2023-11-22T03:41:23;1.37;;;1.10;;
84046;SDS011;74133;0.000;0.000;2023-11-22T03:43:48;1.23;;;0.85;;
84046;SDS011;74133;0.000;0.000;2023-11-22T03:46:14;1.00;;;0.90;;
84046;SDS011;74133;0.000;0.000;2023-11-22T03:48:39;1.17;;;0.95;;
84046;SDS011;74133;0.000;0.000;2023-11-22T03:51:04;1.40;;;1.00;;
84046;SDS011;74133;0.000;0.000;2023-11-22T03:53:30;0.82;;;0.82;;
84046;SDS011;74133;0.000;0.000;2023-11-22T03:55:55;1.73;;;1.23;;
84046;SDS011;74133;0.000;0.000;2023-11-22T03:58:21;0.97;;;0.87;;
84046;SDS011;74133;0.000;0.000;2023-11-22T04:00:46;1.20;;;0.93;;
84046;SDS011;74133;0.000;0.000;2023-11-22T04:03:12;1.10;;;0.90;;
84046;SDS011;74133;0.000;0.000;2023-11-22T04:05:37;1.33;;;1.02;;
84046;SDS011;74133;0.000;0.000;2023-11-22T04:08:02;2.03;;;1.02;;
84046;SDS011;74133;0.000;0.000;2023-11-22T04:10:28;1.15;;;0.90;;
84046;SDS011;74133;0.000;0.000;2023-11-22T04:12:53;1.27;;;0.97;;
84046;SDS011;74133;0.000;0.000;2023-11-22T04:15:18;1.37;;;1.03;;
84046;SDS011;74133;0.000;0.000;2023-11-22T04:17:44;1.35;;;0.93;;
84046;SDS011;74133;0.000;0.000;2023-11-22T04:20:09;1.67;;;1.00;;
84046;SDS011;74133;0.000;0.000;2023-11-22T04:22:36;1.27;;;0.95;;
84046;SDS011;74133;0.000;0.000;2023-11-22T04:25:01;1.42;;;1.20;;
84046;SDS011;74133;0.000;0.000;2023-11-22T04:27:27;1.80;;;1.00;;
84046;SDS011;74133;0.000;0.000;2023-11-22T04:29:53;1.60;;;1.20;;
84046;SDS011;74133;0.000;0.000;2023-11-22T04:32:18;4.28;;;1.23;;
84046;SDS011;74133;0.000;0.000;2023-11-22T04:34:44;1.15;;;0.90;;
84046;SDS011;74133;0.000;0.000;2023-11-22T04:37:09;1.40;;;1.17;;
84046;SDS011;74133;0.000;0.000;2023-11-22T04:39:34;2.23;;;1.10;;
84046;SDS011;74133;0.000;0.000;2023-11-22T04:42:00;1.58;;;0.70;;
84046;SDS011;74133;0.000;0.000;2023-11-22T04:44:25;1.40;;;1.10;;
84046;SDS011;74133;0.000;0.000;2023-11-22T04:46:51;1.45;;;1.05;;
84046;SDS011;74133;0.000;0.000;2023-11-22T04:49:16;1.08;;;0.98;;
84046;SDS011;74133;0.000;0.000;2023-11-22T04:51:42;1.45;;;1.00;;
84046;SDS011;74133;0.000;0.000;2023-11-22T04:54:08;1.50;;;1.20;;
84046;SDS011;74133;0.000;0.000;2023-11-22T04:56:33;1.33;;;1.08;;
84046;SDS011;74133;0.000;0.000;2023-11-22T04:58:59;1.27;;;1.00;;
84046;SDS011;74133;0.000;0.000;2023-11-22T05:01:24;2.13;;;1.10;;
84046;SDS011;74133;0.000;0.000;2023-11-22T05:03:50;2.65;;;1.10;;
84046;SDS011;74133;0.000;0.000;2023-11-22T05:06:15;1.42;;;1.10;;
84046;SDS011;74133;0.000;0.000;2023-11-22T05:08:41;1.17;;;0.88;;
84046;SDS011;74133;0.000;0.000;2023-11-22T05:11:07;1.23;;;1.13;;
84046;SDS011;74133;0.000;0.000;2023-11-22T05:13:33;4.82;;;1.05;;
84046;SDS011;74133;0.000;0.000;2023-11-22T05:15:58;1.30;;;0.90;;
84046;SDS011;74133;0.000;0.000;2023-11-22T05:18:24;1.07;;;0.90;;
84046;SDS011;74133;0.000;0.000;2023-11-22T05:20:50;3.35;;;1.27;;
84046;SDS011;74133;0.000;0.000;2023-11-22T05:23:15;1.65;;;1.05;;
84046;SDS011;74133;0.000;0.000;2023-11-22T05:25:40;3.93;;;1.10;;
84046;SDS011;74133;0.000;0.000;2023-11-22T05:28:06;2.03;;;1.10;;
84046;SDS011;74133;0.000;0.000;2023-11-22T05:30:31;1.40;;;1.00;;
84046;SDS011;74133;0.000;0.000;2023-11-22T05:32:56;4.20;;;1.70;;
84046;SDS011;74133;0.000;0.000;2023-11-22T05:35:22;5.93;;;2.20;;
84046;SDS011;74133;0.000;0.000;2023-11-22T05:37:47;10.18;;;3.47;;
84046;SDS011;74133;0.000;0.000;2023-11-22T05:40:13;15.57;;;4.63;;
84046;SDS011;74133;0.000;0.000;2023-11-22T05:42:40;8.45;;;3.80;;
84046;SDS011;74133;0.000;0.000;2023-11-22T05:45:06;8.68;;;3.38;;
84046;SDS011;74133;0.000;0.000;2023-11-22T05:47:32;9.07;;;3.03;;
84046;SDS011;74133;0.000;0.000;2023-11-22T05:49:58;10.03;;;3.37;;
84046;SDS011;74133;0.000;0.000;2023-11-22T05:52:23;9.98;;;2.90;;
84046;SDS011;74133;0.000;0.000;2023-11-22T05:54:49;4.93;;;2.75;;
84046;SDS011;74133;0.000;0.000;2023-11-22T05:57:14;6.43;;;2.55;;
84046;SDS011;74133;0.000;0.000;2023-11-22T05:59:40;7.47;;;2.50;;
84046;SDS011;74133;0.000;0.000;2023-11-22T06:02:05;7.30;;;2.80;;
84046;SDS011;74133;0.000;0.000;2023-11-22T06:04:31;6.70;;;2.70;;
84046;SDS011;74133;0.000;0.000;2023-11-22T06:06:56;8.03;;;2.70;;
84046;SDS011;74133;0.000;0.000;2023-11-22T06:09:21;7.18;;;2.35;;
84046;SDS011;74133;0.000;0.000;2023-11-22T06:11:48;5.22;;;2.40;;
84046;SDS011;74133;0.000;0.000;2023-11-22T06:14:13;4.82;;;2.67;;
84046;SDS011;74133;0.000;0.000;2023-11-22T06:16:38;5.33;;;2.30;;
84046;SDS011;74133;0.000;0.000;2023-11-22T06:19:04;6.43;;;2.60;;
84046;SDS011;74133;0.000;0.000;2023-11-22T06:21:29;4.20;;;2.07;;
84046;SDS011;74133;0.000;0.000;2023-11-22T06:23:54;3.75;;;1.92;;
84046;SDS011;74133;0.000;0.000;2023-11-22T06:26:23;4.15;;;1.98;;
84046;SDS011;74133;0.000;0.000;2023-11-22T06:28:49;7.10;;;2.53;;
84046;SDS011;74133;0.000;0.000;2023-11-22T06:31:15;5.43;;;2.30;;
84046;SDS011;74133;0.000;0.000;2023-11-22T06:33:40;5.18;;;2.30;;
84046;SDS011;74133;0.000;0.000;2023-11-22T06:36:05;4.43;;;2.13;;
84046;SDS011;74133;0.000;0.000;2023-11-22T06:38:31;6.40;;;2.40;;
84046;SDS011;74133;0.000;0.000;2023-11-22T06:40:57;4.07;;;1.85;;
84046;SDS011;74133;0.000;0.000;2023-11-22T06:43:22;4.70;;;2.20;;
84046;SDS011;74133;0.000;0.000;2023-11-22T06:45:48;5.13;;;2.10;;
84046;SDS011;74133;0.000;0.000;2023-11-22T06:48:13;4.13;;;2.03;;
84046;SDS011;74133;0.000;0.000;2023-11-22T06:50:38;3.20;;;1.75;;
84046;SDS011;74133;0.000;0.000;2023-11-22T06:53:04;3.65;;;1.75;;
84046;SDS011;74133;0.000;0.000;2023-11-22T06:55:31;4.13;;;1.90;;
84046;SDS011;74133;0.000;0.000;2023-11-22T06:57:57;2.65;;;1.52;;
84046;SDS011;74133;0.000;0.000;2023-11-22T07:00:23;5.20;;;2.20;;
84046;SDS011;74133;0.000;0.000;2023-11-22T07:02:48;4.20;;;2.03;;
84046;SDS011;74133;0.000;0.000;2023-11-22T07:05:13;5.33;;;2.33;;
84046;SDS011;74133;0.000;0.000;2023-11-22T07:07:39;3.70;;;1.90;;
84046;SDS011;74133;0.000;0.000;2023-11-22T07:10:04;4.53;;;1.83;;
84046;SDS011;74133;0.000;0.000;2023-11-22T07:12:33;5.30;;;2.08;;
84046;SDS011;74133;0.000;0.000;2023-11-22T07:15:02;4.43;;;2.20;;
84046;SDS011;74133;0.000;0.000;2023-11-22T07:17:27;2.25;;;1.70;;
84046;SDS011;74133;0.000;0.000;2023-11-22T07:19:54;4.00;;;2.13;;
84046;SDS011;74133;0.000;0.000;2023-11-22T07:22:19;3.25;;;1.98;;
84046;SDS011;74133;0.000;0.000;2023-11-22T07:24:47;4.13;;;1.80;;
84046;SDS011;74133;0.000;0.000;2023-11-22T07:27:16;4.97;;;2.00;;
84046;SDS011;74133;0.000;0.000;2023-11-22T07:29:42;3.90;;;1.83;;
84046;SDS011;74133;0.000;0.000;2023-11-22T07:32:08;2.70;;;1.90;;
84046;SDS011;74133;0.000;0.000;2023-11-22T07:34:35;3.13;;;2.30;;
84046;SDS011;74133;0.000;0.000;2023-11-22T07:37:02;4.28;;;2.38;;
84046;SDS011;74133;0.000;0.000;2023-11-22T07:39:27;3.53;;;1.83;;
84046;SDS011;74133;0.000;0.000;2023-11-22T07:41:54;3.28;;;1.98;;
84046;SDS011;74133;0.000;0.000;2023-11-22T07:44:22;3.20;;;1.85;;
84046;SDS011;74133;0.000;0.000;2023-11-22T07:46:48;4.40;;;1.90;;
84046;SDS011;74133;0.000;0.000;2023-11-22T07:49:14;2.93;;;1.70;;
84046;SDS011;74133;0.000;0.000;2023-11-22T07:51:39;3.35;;;1.70;;
84046;SDS011;74133;0.000;0.000;2023-11-22T07:54:06;3.00;;;1.92;;
84046;SDS011;74133;0.000;0.000;2023-11-22T07:56:32;2.55;;;1.50;;
84046;SDS011;74133;0.000;0.000;2023-11-22T07:58:57;3.05;;;1.90;;
84046;SDS011;74133;0.000;0.000;2023-11-22T08:01:23;2.78;;;1.83;;
84046;SDS011;74133;0.000;0.000;2023-11-22T08:03:50;3.40;;;1.88;;
84046;SDS011;74133;0.000;0.000;2023-11-22T08:06:16;3.40;;;1.75;;
84046;SDS011;74133;0.000;0.000;2023-11-22T08:08:42;3.10;;;2.03;;
84046;SDS011;74133;0.000;0.000;2023-11-22T08:11:10;3.17;;;1.88;;
84046;SDS011;74133;0.000;0.000;2023-11-22T08:13:40;3.25;;;1.85;;
84046;SDS011;74133;0.000;0.000;2023-11-22T08:16:10;3.65;;;1.80;;
84046;SDS011;74133;0.000;0.000;2023-11-22T08:18:38;5.70;;;2.22;;
84046;SDS011;74133;0.000;0.000;2023-11-22T08:21:04;3.38;;;2.20;;
84046;SDS011;74133;0.000;0.000;2023-11-22T08:23:29;3.05;;;1.90;;
84046;SDS011;74133;0.000;0.000;2023-11-22T08:25:57;3.67;;;1.98;;
84046;SDS011;74133;0.000;0.000;2023-11-22T08:28:23;3.65;;;2.00;;
84046;SDS011;74133;0.000;0.000;2023-11-22T08:30:48;4.00;;;2.07;;
84046;SDS011;74133;0.000;0.000;2023-11-22T08:33:14;3.07;;;1.70;;
84046;SDS011;74133;0.000;0.000;2023-11-22T08:35:39;3.08;;;1.65;;
84046;SDS011;74133;0.000;0.000;2023-11-22T08:38:04;3.00;;;1.87;;
84046;SDS011;74133;0.000;0.000;2023-11-22T08:40:34;2.00;;;1.65;;
84046;SDS011;74133;0.000;0.000;2023-11-22T08:43:02;2.40;;;1.75;;
84046;SDS011;74133;0.000;0.000;2023-11-22T08:45:29;3.78;;;2.00;;
84046;SDS011;74133;0.000;0.000;2023-11-22T08:47:54;3.90;;;1.70;;
84046;SDS011;74133;0.000;0.000;2023-11-22T08:50:20;2.67;;;1.70;;
84046;SDS011;74133;0.000;0.000;2023-11-22T08:52:46;3.33;;;1.88;;
84046;SDS011;74133;0.000;0.000;2023-11-22T08:55:12;2.70;;;1.90;;
84046;SDS011;74133;0.000;0.000;2023-11-22T08:57:40;3.17;;;1.67;;
84046;SDS011;74133;0.000;0.000;2023-11-22T09:00:05;3.13;;;1.75;;
84046;SDS011;74133;0.000;0.000;2023-11-22T09:02:34;3.05;;;1.73;;
84046;SDS011;74133;0.000;0.000;2023-11-22T09:05:03;2.85;;;1.77;;
84046;SDS011;74133;0.000;0.000;2023-11-22T09:07:31;3.65;;;2.20;;
84046;SDS011;74133;0.000;0.000;2023-11-22T09:09:58;2.80;;;1.92;;
84046;SDS011;74133;0.000;0.000;2023-11-22T09:12:23;2.95;;;2.00;;
84046;SDS011;74133;0.000;0.000;2023-11-22T09:14:49;2.67;;;1.90;;
84046;SDS011;74133;0.000;0.000;2023-11-22T09:17:14;3.00;;;1.67;;
84046;SDS011;74133;0.000;0.000;2023-11-22T09:19:39;2.47;;;1.50;;
84046;SDS011;74133;0.000;0.000;2023-11-22T09:22:05;2.77;;;1.70;;
84046;SDS011;74133;0.000;0.000;2023-11-22T09:24:33;2.45;;;1.63;;
84046;SDS011;74133;0.000;0.000;2023-11-22T09:26:58;3.23;;;2.00;;
84046;SDS011;74133;0.000;0.000;2023-11-22T09:29:25;3.65;;;1.63;;
84046;SDS011;74133;0.000;0.000;2023-11-22T09:31:50;3.45;;;1.77;;
84046;SDS011;74133;0.000;0.000;2023-11-22T09:34:17;3.08;;;1.63;;
84046;SDS011;74133;0.000;0.000;2023-11-22T09:36:42;2.35;;;1.70;;
84046;SDS011;74133;0.000;0.000;2023-11-22T09:39:07;2.53;;;1.77;;
84046;SDS011;74133;0.000;0.000;2023-11-22T09:41:36;3.03;;;1.50;;
84046;SDS011;74133;0.000;0.000;2023-11-22T09:44:02;2.53;;;1.65;;
84046;SDS011;74133;0.000;0.000;2023-11-22T09:46:29;2.72;;;1.80;;
84046;SDS011;74133;0.000;0.000;2023-11-22T09:48:56;2.50;;;1.60;;
84046;SDS011;74133;0.000;0.000;2023-11-22T09:51:26;2.00;;;1.65;;
84046;SDS011;74133;0.000;0.000;2023-11-22T09:53:56;3.63;;;1.80;;
84046;SDS011;74133;0.000;0.000;2023-11-22T09:56:29;2.47;;;1.65;;
84046;SDS011;74133;0.000;0.000;2023-11-22T09:58:57;3.78;;;1.80;;
84046;SDS011;74133;0.000;0.000;2023-11-22T10:01:25;2.17;;;1.67;;
84046;SDS011;74133;0.000;0.000;2023-11-22T10:03:53;3.17;;;1.52;;
84046;SDS011;74133;0.000;0.000;2023-11-22T10:06:19;2.20;;;1.73;;
84046;SDS011;74133;0.000;0.000;2023-11-22T10:08:45;3.75;;;1.75;;
84046;SDS011;74133;0.000;0.000;2023-11-22T10:11:15;3.85;;;1.73;;
84046;SDS011;74133;0.000;0.000;2023-11-22T10:13:43;2.55;;;1.65;;
84046;SDS011;74133;0.000;0.000;2023-11-22T10:16:11;2.22;;;1.45;;
84046;SDS011;74133;0.000;0.000;2023-11-22T10:18:41;2.10;;;1.38;;
84046;SDS011;74133;0.000;0.000;2023-11-22T10:24:00;2.47;;;1.50;;
84046;SDS011;74133;0.000;0.000;2023-11-22T10:26:31;2.22;;;1.77;;
84046;SDS011;74133;0.000;0.000;2023-11-22T10:28:57;2.08;;;1.35;;
84046;SDS011;74133;0.000;0.000;2023-11-22T10:31:23;2.25;;;1.60;;
84046;SDS011;74133;0.000;0.000;2023-11-22T10:33:49;2.58;;;1.70;;
84046;SDS011;74133;0.000;0.000;2023-11-22T10:36:15;1.83;;;1.20;;
84046;SDS011;74133;0.000;0.000;2023-11-22T10:38:46;2.35;;;1.45;;
84046;SDS011;74133;0.000;0.000;2023-11-22T10:41:13;3.17;;;1.50;;
84046;SDS011;74133;0.000;0.000;2023-11-22T10:43:39;2.67;;;1.42;;
84046;SDS011;74133;0.000;0.000;2023-11-22T10:46:07;2.28;;;1.38;;
84046;SDS011;74133;0.000;0.000;2023-11-22T10:48:36;1.50;;;1.20;;
84046;SDS011;74133;0.000;0.000;2023-11-22T10:51:02;2.75;;;1.30;;
84046;SDS011;74133;0.000;0.000;2023-11-22T10:53:32;3.20;;;1.70;;
84046;SDS011;74133;0.000;0.000;2023-11-22T10:56:16;2.35;;;1.75;;
84046;SDS011;74133;0.000;0.000;2023-11-22T10:58:46;1.52;;;1.25;;
84046;SDS011;74133;0.000;0.000;2023-11-22T11:01:14;1.77;;;1.38;;
84046;SDS011;74133;0.000;0.000;2023-11-22T11:03:41;2.85;;;1.50;;
84046;SDS011;74133;0.000;0.000;2023-11-22T11:06:13;3.17;;;1.80;;
84046;SDS011;74133;0.000;0.000;2023-11-22T11:08:44;2.33;;;1.55;;
84046;SDS011;74133;0.000;0.000;2023-11-22T11:11:10;2.42;;;1.85;;
84046;SDS011;74133;0.000;0.000;2023-11-22T11:13:37;2.33;;;1.48;;
84046;SDS011;74133;0.000;0.000;2023-11-22T11:16:04;2.80;;;1.38;;
84046;SDS011;74133;0.000;0.000;2023-11-22T11:18:31;1.65;;;1.20;;
84046;SDS011;74133;0.000;0.000;2023-11-22T11:20:58;1.98;;;1.42;;
84046;SDS011;74133;0.000;0.000;2023-11-22T11:23:24;1.83;;;1.30;;
84046;SDS011;74133;0.000;0.000;2023-11-22T11:28:20;2.17;;;1.33;;
84046;SDS011;74133;0.000;0.000;2023-11-22T11:30:47;2.63;;;1.75;;
84046;SDS011;74133;0.000;0.000;2023-11-22T11:33:26;3.63;;;1.50;;
84046;SDS011;74133;0.000;0.000;2023-11-22T11:36:12;9.40;;;1.77;;
84046;SDS011;74133;0.000;0.000;2023-11-22T11:38:37;2.43;;;1.40;;
84046;SDS011;74133;0.000;0.000;2023-11-22T11:41:06;1.57;;;1.37;;
84046;SDS011;74133;0.000;0.000;2023-11-22T11:43:44;3.90;;;1.58;;
84046;SDS011;74133;0.000;0.000;2023-11-22T11:46:13;3.58;;;1.70;;
84046;SDS011;74133;0.000;0.000;2023-11-22T11:48:43;4.38;;;1.50;;
84046;SDS011;74133;0.000;0.000;2023-11-22T11:51:10;2.65;;;1.40;;
84046;SDS011;74133;0.000;0.000;2023-11-22T11:53:38;2.00;;;1.40;;
84046;SDS011;74133;0.000;0.000;2023-11-22T11:56:04;3.50;;;1.58;;
84046;SDS011;74133;0.000;0.000;2023-11-22T11:58:30;1.58;;;1.38;;
84046;SDS011;74133;0.000;0.000;2023-11-22T12:00:56;3.05;;;1.55;;
84046;SDS011;74133;0.000;0.000;2023-11-22T12:03:22;3.28;;;1.70;;
84046;SDS011;74133;0.000;0.000;2023-11-22T12:05:48;3.22;;;1.50;;
84046;SDS011;74133;0.000;0.000;2023-11-22T12:08:16;2.25;;;1.50;;
84046;SDS011;74133;0.000;0.000;2023-11-22T12:10:43;3.40;;;1.45;;
84046;SDS011;74133;0.000;0.000;2023-11-22T12:13:16;2.20;;;1.55;;
84046;SDS011;74133;0.000;0.000;2023-11-22T12:15:42;5.00;;;1.95;;
84046;SDS011;74133;0.000;0.000;2023-11-22T12:18:07;5.18;;;2.22;;
84046;SDS011;74133;0.000;0.000;2023-11-22T12:20:33;4.15;;;2.10;;
84046;SDS011;74133;0.000;0.000;2023-11-22T12:22:58;3.30;;;1.95;;
84046;SDS011;74133;0.000;0.000;2023-11-22T12:25:27;3.53;;;2.17;;
84046;SDS011;74133;0.000;0.000;2023-11-22T12:27:56;3.63;;;2.00;;
84046;SDS011;74133;0.000;0.000;2023-11-22T12:30:28;3.05;;;2.13;;
84046;SDS011;74133;0.000;0.000;2023-11-22T12:33:04;4.70;;;2.35;;
84046;SDS011;74133;0.000;0.000;2023-11-22T12:35:31;4.50;;;1.95;;
84046;SDS011;74133;0.000;0.000;2023-11-22T12:38:02;2.88;;;2.15;;
84046;SDS011;74133;0.000;0.000;2023-11-22T12:40:34;2.05;;;1.80;;
84046;SDS011;74133;0.000;0.000;2023-11-22T12:42:59;3.85;;;2.28;;
84046;SDS011;74133;0.000;0.000;2023-11-22T12:45:26;4.35;;;2.22;;
84046;SDS011;74133;0.000;0.000;2023-11-22T12:47:54;2.33;;;1.70;;
84046;SDS011;74133;0.000;0.000;2023-11-22T12:52:56;3.22;;;1.80;;
84046;SDS011;74133;0.000;0.000;2023-11-22T12:55:22;2.55;;;1.85;;
84046;SDS011;74133;0.000;0.000;2023-11-22T12:57:57;5.05;;;2.30;;
84046;SDS011;74133;0.000;0.000;2023-11-22T13:00:25;4.63;;;2.03;;
84046;SDS011;74133;0.000;0.000;2023-11-22T13:02:52;3.78;;;1.80;;
84046;SDS011;74133;0.000;0.000;2023-11-22T13:05:17;2.88;;;2.28;;
84046;SDS011;74133;0.000;0.000;2023-11-22T13:07:44;2.70;;;1.77;;
84046;SDS011;74133;0.000;0.000;2023-11-22T13:10:09;2.57;;;1.67;;
84046;SDS011;74133;0.000;0.000;2023-11-22T13:12:34;2.85;;;2.13;;
84046;SDS011;74133;0.000;0.000;2023-11-22T13:15:00;3.25;;;1.60;;
84046;SDS011;74133;0.000;0.000;2023-11-22T13:17:25;3.40;;;2.03;;
84046;SDS011;74133;0.000;0.000;2023-11-22T13:19:51;3.23;;;1.87;;
84046;SDS011;74133;0.000;0.000;2023-11-22T13:22:16;4.23;;;1.70;;
84046;SDS011;74133;0.000;0.000;2023-11-22T13:24:41;2.30;;;1.70;;
84046;SDS011;74133;0.000;0.000;2023-11-22T13:27:09;3.33;;;1.80;;
84046;SDS011;74133;0.000;0.000;2023-11-22T13:29:34;2.42;;;1.70;;
84046;SDS011;74133;0.000;0.000;2023-11-22T13:32:00;3.07;;;1.60;;
84046;SDS011;74133;0.000;0.000;2023-11-22T13:34:25;2.70;;;1.77;;
84046;SDS011;74133;0.000;0.000;2023-11-22T13:36:50;2.97;;;2.00;;
84046;SDS011;74133;0.000;0.000;2023-11-22T13:39:16;6.50;;;1.60;;
84046;SDS011;74133;0.000;0.000;2023-11-22T13:41:41;3.78;;;2.00;;
84046;SDS011;74133;0.000;0.000;2023-11-22T13:44:07;2.80;;;1.77;;
84046;SDS011;74133;0.000;0.000;2023-11-22T13:46:32;2.30;;;1.50;;
84046;SDS011;74133;0.000;0.000;2023-11-22T13:48:58;1.98;;;1.42;;
84046;SDS011;74133;0.000;0.000;2023-11-22T13:51:24;2.22;;;1.73;;
84046;SDS011;74133;0.000;0.000;2023-11-22T13:53:50;3.28;;;1.80;;
84046;SDS011;74133;0.000;0.000;2023-11-22T13:56:18;2.58;;;1.60;;
84046;SDS011;74133;0.000;0.000;2023-11-22T13:58:44;1.95;;;1.67;;
84046;SDS011;74133;0.000;0.000;2023-11-22T14:01:09;2.17;;;1.70;;
84046;SDS011;74133;0.000;0.000;2023-11-22T14:03:46;3.42;;;1.70;;
84046;SDS011;74133;0.000;0.000;2023-11-22T14:06:12;2.83;;;1.42;;
84046;SDS011;74133;0.000;0.000;2023-11-22T14:08:41;2.20;;;1.63;;
84046;SDS011;74133;0.000;0.000;2023-11-22T14:11:07;2.53;;;1.42;;
84046;SDS011;74133;0.000;0.000;2023-11-22T14:13:32;2.17;;;1.50;;
84046;SDS011;74133;0.000;0.000;2023-11-22T14:15:57;2.10;;;1.37;;
84046;SDS011;74133;0.000;0.000;2023-11-22T14:18:23;7.78;;;1.85;;
84046;SDS011;74133;0.000;0.000;2023-11-22T14:20:49;7.25;;;1.90;;
84046;SDS011;74133;0.000;0.000;2023-11-22T14:23:15;2.57;;;1.90;;
84046;SDS011;74133;0.000;0.000;2023-11-22T14:25:42;2.80;;;1.30;;
84046;SDS011;74133;0.000;0.000;2023-11-22T14:28:07;3.42;;;1.42;;
84046;SDS011;74133;0.000;0.000;2023-11-22T14:30:33;3.03;;;1.42;;
84046;SDS011;74133;0.000;0.000;2023-11-22T14:33:01;2.10;;;1.30;;
84046;SDS011;74133;0.000;0.000;2023-11-22T14:35:31;2.25;;;1.30;;
84046;SDS011;74133;0.000;0.000;2023-11-22T14:37:56;3.60;;;1.52;;
84046;SDS011;74133;0.000;0.000;2023-11-22T14:40:23;2.33;;;1.50;;
84046;SDS011;74133;0.000;0.000;2023-11-22T14:42:48;2.33;;;1.30;;
84046;SDS011;74133;0.000;0.000;2023-11-22T14:45:16;2.35;;;1.25;;
84046;SDS011;74133;0.000;0.000;2023-11-22T14:47:44;2.13;;;1.23;;
84046;SDS011;74133;0.000;0.000;2023-11-22T14:50:10;2.08;;;1.17;;
84046;SDS011;74133;0.000;0.000;2023-11-22T14:52:36;2.00;;;1.20;;
84046;SDS011;74133;0.000;0.000;2023-11-22T14:55:02;2.97;;;1.40;;
84046;SDS011;74133;0.000;0.000;2023-11-22T14:57:30;1.58;;;1.13;;
84046;SDS011;74133;0.000;0.000;2023-11-22T14:59:55;1.77;;;1.40;;
84046;SDS011;74133;0.000;0.000;2023-11-22T15:02:21;2.45;;;1.40;;
84046;SDS011;74133;0.000;0.000;2023-11-22T15:04:47;1.65;;;1.10;;